sensor_id;sensor_type;location;lat;lon;timestamp;pressure;altitude;pressure_sealevel;temperature;humidity
63115;BME280;49208;50.874;6.466;2023-03-26T06:02:44;99193.34;;;6.53;100.00
63115;BME280;49208;50.874;6.466;2023-03-26T06:05:11;99191.63;;;6.52;100.00
63115;BME280;49208;50.874;6.466;2023-03-26T06:07:36;99196.13;;;6.50;100.00
63115;BME280;49208;50.874;6.466;2023-03-26T06:10:02;99183.88;;;6.47;100.00
63115;BME280;49208;50.874;6.466;2023-03-26T06:12:27;99179.56;;;6.45;100.00
63115;BME280;49208;50.874;6.466;2023-03-26T06:14:53;99172.63;;;6.42;100.00
63115;BME280;49208;50.874;6.466;2023-03-26T06:17:18;99176.13;;;6.43;100.00
63115;BME280;49208;50.874;6.466;2023-03-26T06:19:43;99170.72;;;6.46;100.00
63115;BME280;49208;50.874;6.466;2023-03-26T06:22:09;99166.28;;;6.46;100.00
63115;BME280;49208;50.874;6.466;2023-03-26T06:24:34;99162.66;;;6.49;100.00
63115;BME280;49208;50.874;6.466;2023-03-26T06:27:00;99163.53;;;6.50;100.00
63115;BME280;49208;50.874;6.466;2023-03-26T06:29:25;99166.19;;;6.50;100.00
63115;BME280;49208;50.874;6.466;2023-03-26T06:31:51;99157.38;;;6.49;100.00
63115;BME280;49208;50.874;6.466;2023-03-26T06:34:16;99157.31;;;6.51;100.00
63115;BME280;49208;50.874;6.466;2023-03-26T06:36:41;99151.97;;;6.52;100.00
63115;BME280;49208;50.874;6.466;2023-03-26T06:39:07;99151.84;;;6.55;100.00
63115;BME280;49208;50.874;6.466;2023-03-26T06:41:33;99153.59;;;6.56;100.00
63115;BME280;49208;50.874;6.466;2023-03-26T06:43:59;99146.56;;;6.55;100.00
63115;BME280;49208;50.874;6.466;2023-03-26T06:46:25;99148.28;;;6.56;100.00
63115;BME280;49208;50.874;6.466;2023-03-26T06:48:51;99141.22;;;6.57;100.00
63115;BME280;49208;50.874;6.466;2023-03-26T06:51:17;99137.63;;;6.58;100.00
63115;BME280;49208;50.874;6.466;2023-03-26T06:53:43;99135.06;;;6.56;100.00
63115;BME280;49208;50.874;6.466;2023-03-26T06:56:08;99126.22;;;6.57;100.00
63115;BME280;49208;50.874;6.466;2023-03-26T06:58:34;99130.59;;;6.58;100.00
63115;BME280;49208;50.874;6.466;2023-03-26T07:01:00;99128.78;;;6.59;100.00
63115;BME280;49208;50.874;6.466;2023-03-26T07:03:25;99128.66;;;6.62;100.00
63115;BME280;49208;50.874;6.466;2023-03-26T07:05:50;99119.75;;;6.64;100.00
63115;BME280;49208;50.874;6.466;2023-03-26T07:08:16;99116.19;;;6.65;100.00
63115;BME280;49208;50.874;6.466;2023-03-26T07:10:41;99112.53;;;6.68;100.00
63115;BME280;49208;50.874;6.466;2023-03-26T07:13:07;99112.47;;;6.70;100.00
63115;BME280;49208;50.874;6.466;2023-03-26T07:15:32;99104.50;;;6.71;100.00
63115;BME280;49208;50.874;6.466;2023-03-26T07:17:58;99114.09;;;6.74;100.00
63115;BME280;49208;50.874;6.466;2023-03-26T07:20:23;99103.44;;;6.75;100.00
63115;BME280;49208;50.874;6.466;2023-03-26T07:22:49;99106.09;;;6.75;100.00
63115;BME280;49208;50.874;6.466;2023-03-26T07:25:15;99099.88;;;6.76;100.00
63115;BME280;49208;50.874;6.466;2023-03-26T07:36:22;99091.06;;;6.76;100.00
63115;BME280;49208;50.874;6.466;2023-03-26T07:39:13;99089.38;;;6.75;100.00
63115;BME280;49208;50.874;6.466;2023-03-26T07:41:57;99091.13;;;6.74;100.00
63115;BME280;49208;50.874;6.466;2023-03-26T07:44:30;99086.78;;;6.73;100.00
63115;BME280;49208;50.874;6.466;2023-03-26T07:47:01;99086.72;;;6.75;100.00
63115;BME280;49208;50.874;6.466;2023-03-26T07:49:29;99082.34;;;6.74;100.00
63115;BME280;49208;50.874;6.466;2023-03-26T07:51:55;99084.00;;;6.76;100.00
63115;BME280;49208;50.874;6.466;2023-03-26T07:54:21;99086.72;;;6.75;100.00
63115;BME280;49208;50.874;6.466;2023-03-26T07:57:00;99082.25;;;6.77;100.00
63115;BME280;49208;50.874;6.466;2023-03-26T07:59:36;99072.63;;;6.74;100.00
63115;BME280;49208;50.874;6.466;2023-03-26T08:05:17;99070.06;;;6.73;100.00
63115;BME280;49208;50.874;6.466;2023-03-26T08:11:21;99058.75;;;6.69;100.00
63115;BME280;49208;50.874;6.466;2023-03-26T08:21:28;99044.72;;;6.67;100.00
63115;BME280;49208;50.874;6.466;2023-03-26T08:26:38;99042.88;;;6.69;100.00
63115;BME280;49208;50.874;6.466;2023-03-26T08:29:34;99032.16;;;6.72;100.00
63115;BME280;49208;50.874;6.466;2023-03-26T08:32:08;99039.44;;;6.67;100.00
63115;BME280;49208;50.874;6.466;2023-03-26T08:34:38;99033.31;;;6.66;100.00
63115;BME280;49208;50.874;6.466;2023-03-26T08:37:03;99027.06;;;6.67;100.00
63115;BME280;49208;50.874;6.466;2023-03-26T08:39:28;99019.19;;;6.66;100.00
63115;BME280;49208;50.874;6.466;2023-03-26T08:45:32;99014.78;;;6.66;100.00
63115;BME280;49208;50.874;6.466;2023-03-26T08:54:08;98994.34;;;6.70;100.00
63115;BME280;49208;50.874;6.466;2023-03-26T08:57:32;98996.72;;;6.76;100.00
63115;BME280;49208;50.874;6.466;2023-03-26T09:11:20;98982.59;;;6.98;100.00
63115;BME280;49208;50.874;6.466;2023-03-26T09:23:04;98967.13;;;7.07;100.00
63115;BME280;49208;50.874;6.466;2023-03-26T09:26:33;98972.31;;;7.11;100.00
63115;BME280;49208;50.874;6.466;2023-03-26T09:29:20;98962.44;;;7.14;100.00
63115;BME280;49208;50.874;6.466;2023-03-26T09:35:02;98950.28;;;7.29;100.00
63115;BME280;49208;50.874;6.466;2023-03-26T09:40:20;98944.22;;;7.46;100.00
63115;BME280;49208;50.874;6.466;2023-03-26T09:42:55;98942.56;;;7.62;100.00
63115;BME280;49208;50.874;6.466;2023-03-26T09:53:52;98924.72;;;8.02;100.00
63115;BME280;49208;50.874;6.466;2023-03-26T09:59:20;98922.59;;;8.09;100.00
63115;BME280;49208;50.874;6.466;2023-03-26T10:10:03;98918.81;;;8.15;100.00
63115;BME280;49208;50.874;6.466;2023-03-26T10:12:38;98913.50;;;8.15;100.00
63115;BME280;49208;50.874;6.466;2023-03-26T10:15:31;98911.56;;;8.36;100.00
63115;BME280;49208;50.874;6.466;2023-03-26T10:34:43;98903.25;;;7.72;100.00
63115;BME280;49208;50.874;6.466;2023-03-26T10:37:24;98907.59;;;7.73;100.00
63115;BME280;49208;50.874;6.466;2023-03-26T10:45:35;98896.09;;;7.74;100.00
63115;BME280;49208;50.874;6.466;2023-03-26T10:48:11;98898.28;;;7.83;100.00
63115;BME280;49208;50.874;6.466;2023-03-26T10:53:48;98890.03;;;7.89;100.00
63115;BME280;49208;50.874;6.466;2023-03-26T10:56:28;98886.13;;;7.97;100.00
63115;BME280;49208;50.874;6.466;2023-03-26T10:58:56;98889.56;;;7.99;100.00
63115;BME280;49208;50.874;6.466;2023-03-26T11:01:41;98890.97;;;8.06;100.00
63115;BME280;49208;50.874;6.466;2023-03-26T11:07:15;98875.94;;;8.24;100.00
63115;BME280;49208;50.874;6.466;2023-03-26T11:09:48;98880.50;;;8.38;100.00
63115;BME280;49208;50.874;6.466;2023-03-26T11:12:44;98879.84;;;8.52;100.00
63115;BME280;49208;50.874;6.466;2023-03-26T11:15:35;98884.50;;;8.64;100.00
63115;BME280;49208;50.874;6.466;2023-03-26T11:21:32;98880.22;;;8.95;100.00
63115;BME280;49208;50.874;6.466;2023-03-26T11:26:57;98894.88;;;9.18;100.00
63115;BME280;49208;50.874;6.466;2023-03-26T11:29:48;98906.88;;;9.09;100.00
63115;BME280;49208;50.874;6.466;2023-03-26T11:32:19;98903.66;;;8.86;100.00
63115;BME280;49208;50.874;6.466;2023-03-26T11:35:04;98903.28;;;8.77;100.00
63115;BME280;49208;50.874;6.466;2023-03-26T11:37:41;98895.38;;;8.75;100.00
63115;BME280;49208;50.874;6.466;2023-03-26T11:40:30;98898.16;;;8.89;100.00
63115;BME280;49208;50.874;6.466;2023-03-26T11:43:03;98896.78;;;9.16;100.00
63115;BME280;49208;50.874;6.466;2023-03-26T11:45:33;98888.53;;;9.52;100.00
63115;BME280;49208;50.874;6.466;2023-03-26T11:48:09;98892.38;;;9.94;100.00
63115;BME280;49208;50.874;6.466;2023-03-26T11:50:46;98893.84;;;10.30;100.00
63115;BME280;49208;50.874;6.466;2023-03-26T11:53:17;98894.25;;;10.38;97.47
63115;BME280;49208;50.874;6.466;2023-03-26T11:55:47;98896.63;;;10.27;94.96
63115;BME280;49208;50.874;6.466;2023-03-26T11:58:24;98897.53;;;10.11;95.32
63115;BME280;49208;50.874;6.466;2023-03-26T12:00:54;98906.59;;;9.93;95.94
63115;BME280;49208;50.874;6.466;2023-03-26T12:03:20;98898.63;;;9.77;94.81
63115;BME280;49208;50.874;6.466;2023-03-26T12:05:51;98906.28;;;9.67;96.08
63115;BME280;49208;50.874;6.466;2023-03-26T12:08:29;98902.44;;;9.57;96.25
63115;BME280;49208;50.874;6.466;2023-03-26T12:11:23;98901.41;;;9.60;98.18
63115;BME280;49208;50.874;6.466;2023-03-26T12:13:58;98901.63;;;9.71;96.87
63115;BME280;49208;50.874;6.466;2023-03-26T12:16:24;98906.59;;;9.93;98.29
63115;BME280;49208;50.874;6.466;2023-03-26T12:19:02;98909.44;;;10.20;96.78
63115;BME280;49208;50.874;6.466;2023-03-26T12:21:45;98904.91;;;10.52;95.95
63115;BME280;49208;50.874;6.466;2023-03-26T12:24:33;98911.97;;;10.82;94.58
63115;BME280;49208;50.874;6.466;2023-03-26T12:27:25;98907.69;;;11.23;92.51
63115;BME280;49208;50.874;6.466;2023-03-26T12:30:22;98911.16;;;11.52;91.65
63115;BME280;49208;50.874;6.466;2023-03-26T12:32:51;98906.25;;;11.73;90.06
63115;BME280;49208;50.874;6.466;2023-03-26T12:35:23;98917.47;;;11.78;88.27
63115;BME280;49208;50.874;6.466;2023-03-26T12:37:52;98906.75;;;11.65;85.77
63115;BME280;49208;50.874;6.466;2023-03-26T12:42:51;98924.00;;;11.45;84.89
63115;BME280;49208;50.874;6.466;2023-03-26T12:45:20;98926.97;;;11.41;85.82
63115;BME280;49208;50.874;6.466;2023-03-26T12:47:46;98923.38;;;11.27;87.55
63115;BME280;49208;50.874;6.466;2023-03-26T12:50:16;98936.69;;;10.99;88.76
63115;BME280;49208;50.874;6.466;2023-03-26T12:55:38;98930.63;;;10.52;91.96
63115;BME280;49208;50.874;6.466;2023-03-26T12:58:30;98934.13;;;10.22;92.78
63115;BME280;49208;50.874;6.466;2023-03-26T13:06:48;98942.72;;;9.65;95.53
63115;BME280;49208;50.874;6.466;2023-03-26T13:12:24;98945.44;;;9.48;97.23
63115;BME280;49208;50.874;6.466;2023-03-26T13:15:14;98940.63;;;9.39;97.63
63115;BME280;49208;50.874;6.466;2023-03-26T13:18:09;98948.88;;;9.34;96.75
63115;BME280;49208;50.874;6.466;2023-03-26T13:21:06;98950.22;;;9.41;97.40
63115;BME280;49208;50.874;6.466;2023-03-26T13:23:43;98952.47;;;9.49;98.34
63115;BME280;49208;50.874;6.466;2023-03-26T13:26:36;98950.31;;;9.56;96.26
63115;BME280;49208;50.874;6.466;2023-03-26T13:29:21;98949.66;;;9.68;96.08
63115;BME280;49208;50.874;6.466;2023-03-26T13:32:14;98954.78;;;9.71;92.33
63115;BME280;49208;50.874;6.466;2023-03-26T13:37:54;98955.72;;;9.54;93.25
63115;BME280;49208;50.874;6.466;2023-03-26T13:43:36;98956.72;;;9.20;95.42
63115;BME280;49208;50.874;6.466;2023-03-26T13:48:58;98955.31;;;9.13;98.34
63115;BME280;49208;50.874;6.466;2023-03-26T13:53:52;98948.66;;;9.21;100.00
63115;BME280;49208;50.874;6.466;2023-03-26T13:56:25;98954.84;;;9.22;99.49
63115;BME280;49208;50.874;6.466;2023-03-26T13:59:02;98962.22;;;9.33;99.19
63115;BME280;49208;50.874;6.466;2023-03-26T14:01:33;98967.13;;;9.40;98.54
63115;BME280;49208;50.874;6.466;2023-03-26T14:07:15;98964.47;;;9.56;97.73
63115;BME280;49208;50.874;6.466;2023-03-26T14:09:53;98962.75;;;9.55;97.13
63115;BME280;49208;50.874;6.466;2023-03-26T14:23:47;98982.88;;;9.10;98.31
63115;BME280;49208;50.874;6.466;2023-03-26T14:29:28;98995.66;;;9.19;98.50
63115;BME280;49208;50.874;6.466;2023-03-26T14:34:55;99000.41;;;8.97;96.00
63115;BME280;49208;50.874;6.466;2023-03-26T14:37:48;98994.28;;;8.61;96.54
63115;BME280;49208;50.874;6.466;2023-03-26T14:40:35;99006.34;;;8.49;99.29
63115;BME280;49208;50.874;6.466;2023-03-26T14:43:17;99013.00;;;8.39;99.67
63115;BME280;49208;50.874;6.466;2023-03-26T14:53:34;99025.75;;;8.14;100.00
63115;BME280;49208;50.874;6.466;2023-03-26T14:58:44;99021.25;;;8.16;100.00
63115;BME280;49208;50.874;6.466;2023-03-26T15:02:01;99035.13;;;8.21;100.00
63115;BME280;49208;50.874;6.466;2023-03-26T15:12:08;99050.19;;;8.38;100.00
63115;BME280;49208;50.874;6.466;2023-03-26T15:26:38;99072.00;;;8.25;100.00
63115;BME280;49208;50.874;6.466;2023-03-26T15:29:26;99069.22;;;8.28;100.00
63115;BME280;49208;50.874;6.466;2023-03-26T15:43:04;99087.56;;;8.14;100.00
63115;BME280;49208;50.874;6.466;2023-03-26T15:45:41;99097.44;;;8.10;100.00
63115;BME280;49208;50.874;6.466;2023-03-26T15:53:51;99116.50;;;8.00;100.00
63115;BME280;49208;50.874;6.466;2023-03-26T15:56:52;99118.72;;;7.90;100.00
63115;BME280;49208;50.874;6.466;2023-03-26T16:02:47;99121.94;;;7.78;100.00
63115;BME280;49208;50.874;6.466;2023-03-26T16:34:40;99180.16;;;7.38;100.00
63115;BME280;49208;50.874;6.466;2023-03-26T16:54:03;99220.81;;;7.15;100.00
63115;BME280;49208;50.874;6.466;2023-03-26T16:56:47;99231.47;;;7.14;100.00
63115;BME280;49208;50.874;6.466;2023-03-26T17:02:26;99245.69;;;7.11;100.00
63115;BME280;49208;50.874;6.466;2023-03-26T17:05:17;99251.19;;;7.06;100.00
63115;BME280;49208;50.874;6.466;2023-03-26T17:10:40;99261.88;;;7.03;100.00
63115;BME280;49208;50.874;6.466;2023-03-26T17:13:32;99271.75;;;7.00;100.00
63115;BME280;49208;50.874;6.466;2023-03-26T17:18:42;99288.66;;;6.96;100.00
63115;BME280;49208;50.874;6.466;2023-03-26T17:21:19;99294.03;;;6.93;100.00
63115;BME280;49208;50.874;6.466;2023-03-26T17:24:04;99289.81;;;6.88;100.00
63115;BME280;49208;50.874;6.466;2023-03-26T17:31:58;99320.06;;;6.81;100.00
63115;BME280;49208;50.874;6.466;2023-03-26T17:37:03;99327.38;;;6.75;100.00
63115;BME280;49208;50.874;6.466;2023-03-26T17:50:06;99361.91;;;6.70;100.00
63115;BME280;49208;50.874;6.466;2023-03-26T17:52:56;99376.28;;;6.63;100.00
63115;BME280;49208;50.874;6.466;2023-03-26T17:55:28;99386.22;;;6.56;100.00
63115;BME280;49208;50.874;6.466;2023-03-26T17:58:03;99381.94;;;6.54;100.00
63115;BME280;49208;50.874;6.466;2023-03-26T18:00:41;99388.97;;;6.53;100.00
63115;BME280;49208;50.874;6.466;2023-03-26T18:03:14;99395.25;;;6.51;100.00
63115;BME280;49208;50.874;6.466;2023-03-26T18:05:42;99404.03;;;6.51;100.00
63115;BME280;49208;50.874;6.466;2023-03-26T18:16:48;99428.03;;;6.45;100.00
63115;BME280;49208;50.874;6.466;2023-03-26T18:19:13;99436.94;;;6.42;100.00
63115;BME280;49208;50.874;6.466;2023-03-26T18:21:45;99438.69;;;6.43;100.00
63115;BME280;49208;50.874;6.466;2023-03-26T18:24:27;99446.66;;;6.42;100.00
63115;BME280;49208;50.874;6.466;2023-03-26T18:27:06;99455.28;;;6.47;100.00
63115;BME280;49208;50.874;6.466;2023-03-26T18:29:34;99458.03;;;6.44;100.00
63115;BME280;49208;50.874;6.466;2023-03-26T18:34:34;99472.16;;;6.43;100.00
63115;BME280;49208;50.874;6.466;2023-03-26T18:37:23;99472.16;;;6.43;100.00
63115;BME280;49208;50.874;6.466;2023-03-26T18:40:00;99480.97;;;6.43;100.00
63115;BME280;49208;50.874;6.466;2023-03-26T18:42:29;99485.53;;;6.38;100.00
63115;BME280;49208;50.874;6.466;2023-03-26T18:44:56;99499.69;;;6.37;100.00
63115;BME280;49208;50.874;6.466;2023-03-26T18:47:22;99503.28;;;6.35;100.00
63115;BME280;49208;50.874;6.466;2023-03-26T18:49:53;99511.31;;;6.32;100.00
63115;BME280;49208;50.874;6.466;2023-03-26T18:52:19;99520.09;;;6.32;100.00
63115;BME280;49208;50.874;6.466;2023-03-26T18:54:47;99521.94;;;6.30;100.00
63115;BME280;49208;50.874;6.466;2023-03-26T18:57:25;99534.34;;;6.28;100.00
63115;BME280;49208;50.874;6.466;2023-03-26T18:59:53;99535.34;;;6.24;100.00
63115;BME280;49208;50.874;6.466;2023-03-26T19:02:19;99538.09;;;6.21;100.00
63115;BME280;49208;50.874;6.466;2023-03-26T19:04:47;99537.38;;;6.16;100.00
63115;BME280;49208;50.874;6.466;2023-03-26T19:07:17;99544.47;;;6.14;100.00
63115;BME280;49208;50.874;6.466;2023-03-26T19:09:46;99542.97;;;6.06;100.00
63115;BME280;49208;50.874;6.466;2023-03-26T19:12:26;99547.44;;;6.04;100.00
63115;BME280;49208;50.874;6.466;2023-03-26T19:15:01;99563.47;;;5.98;100.00
63115;BME280;49208;50.874;6.466;2023-03-26T19:17:31;99564.47;;;5.93;100.00
63115;BME280;49208;50.874;6.466;2023-03-26T19:19:58;99567.22;;;5.90;99.65
63115;BME280;49208;50.874;6.466;2023-03-26T19:22:25;99570.81;;;5.87;99.89
63115;BME280;49208;50.874;6.466;2023-03-26T19:24:56;99577.88;;;5.86;99.93
63115;BME280;49208;50.874;6.466;2023-03-26T19:27:22;99573.59;;;5.82;100.00
63115;BME280;49208;50.874;6.466;2023-03-26T19:29:48;99589.47;;;5.81;98.75
63115;BME280;49208;50.874;6.466;2023-03-26T19:32:19;99596.59;;;5.79;97.76
63115;BME280;49208;50.874;6.466;2023-03-26T19:34:46;99598.50;;;5.74;98.52
63115;BME280;49208;50.874;6.466;2023-03-26T19:37:30;99603.94;;;5.69;98.71
63115;BME280;49208;50.874;6.466;2023-03-26T19:40:19;99618.91;;;5.69;97.80
63115;BME280;49208;50.874;6.466;2023-03-26T19:42:47;99613.72;;;5.65;98.15
63115;BME280;49208;50.874;6.466;2023-03-26T19:45:17;99619.03;;;5.64;95.77
63115;BME280;49208;50.874;6.466;2023-03-26T19:47:45;99621.66;;;5.64;96.71
63115;BME280;49208;50.874;6.466;2023-03-26T19:50:27;99629.69;;;5.61;97.36
63115;BME280;49208;50.874;6.466;2023-03-26T19:55:35;99642.19;;;5.54;96.95
63115;BME280;49208;50.874;6.466;2023-03-26T19:58:01;99653.63;;;5.55;96.09
63115;BME280;49208;50.874;6.466;2023-03-26T20:00:27;99649.22;;;5.54;94.83
63115;BME280;49208;50.874;6.466;2023-03-26T20:02:52;99659.84;;;5.52;94.71
63115;BME280;49208;50.874;6.466;2023-03-26T20:05:30;99667.88;;;5.47;95.15
63115;BME280;49208;50.874;6.466;2023-03-26T20:07:58;99673.09;;;5.51;94.07
63115;BME280;49208;50.874;6.466;2023-03-26T20:10:28;99676.75;;;5.45;94.71
63115;BME280;49208;50.874;6.466;2023-03-26T20:12:53;99683.00;;;5.41;94.13
63115;BME280;49208;50.874;6.466;2023-03-26T20:15:19;99688.28;;;5.41;93.74
63115;BME280;49208;50.874;6.466;2023-03-26T20:17:46;99692.75;;;5.39;94.76
63115;BME280;49208;50.874;6.466;2023-03-26T20:20:14;99701.47;;;5.42;93.16
63115;BME280;49208;50.874;6.466;2023-03-26T20:22:40;99698.00;;;5.40;91.45
63115;BME280;49208;50.874;6.466;2023-03-26T20:25:29;99707.75;;;5.37;91.74
63115;BME280;49208;50.874;6.466;2023-03-26T20:27:56;99715.75;;;5.34;92.90
63115;BME280;49208;50.874;6.466;2023-03-26T20:30:23;99721.06;;;5.32;93.12
63115;BME280;49208;50.874;6.466;2023-03-26T20:32:49;99719.41;;;5.28;94.39
63115;BME280;49208;50.874;6.466;2023-03-26T20:35:16;99729.97;;;5.28;93.48
63115;BME280;49208;50.874;6.466;2023-03-26T20:37:45;99728.28;;;5.25;92.46
63115;BME280;49208;50.874;6.466;2023-03-26T20:40:11;99737.91;;;5.26;92.81
63115;BME280;49208;50.874;6.466;2023-03-26T20:42:38;99738.91;;;5.22;90.64
63115;BME280;49208;50.874;6.466;2023-03-26T20:45:18;99750.38;;;5.21;90.82
63115;BME280;49208;50.874;6.466;2023-03-26T20:47:44;99754.72;;;5.22;87.66
63115;BME280;49208;50.874;6.466;2023-03-26T20:50:13;99757.53;;;5.16;88.09
63115;BME280;49208;50.874;6.466;2023-03-26T20:52:40;99768.03;;;5.18;86.03
63115;BME280;49208;50.874;6.466;2023-03-26T20:55:06;99771.69;;;5.12;87.29
63115;BME280;49208;50.874;6.466;2023-03-26T20:57:33;99769.13;;;5.11;88.04
63115;BME280;49208;50.874;6.466;2023-03-26T20:59:59;99781.53;;;5.05;88.94
63115;BME280;49208;50.874;6.466;2023-03-26T21:02:24;99786.78;;;5.07;89.81
63115;BME280;49208;50.874;6.466;2023-03-26T21:04:50;99792.19;;;5.01;90.81
63115;BME280;49208;50.874;6.466;2023-03-26T21:07:17;99794.84;;;4.99;89.87
63115;BME280;49208;50.874;6.466;2023-03-26T21:09:44;99801.06;;;4.97;88.91
63115;BME280;49208;50.874;6.466;2023-03-26T21:12:20;99810.78;;;4.96;87.13
63115;BME280;49208;50.874;6.466;2023-03-26T21:14:49;99809.84;;;4.97;86.61
63115;BME280;49208;50.874;6.466;2023-03-26T21:17:20;99829.38;;;4.89;87.99
63115;BME280;49208;50.874;6.466;2023-03-26T21:19:46;99830.25;;;4.89;86.58
63115;BME280;49208;50.874;6.466;2023-03-26T21:22:29;99837.31;;;4.89;85.38
63115;BME280;49208;50.874;6.466;2023-03-26T21:25:14;99835.59;;;4.86;85.88
63115;BME280;49208;50.874;6.466;2023-03-26T21:30:13;99840.09;;;4.81;84.11
63115;BME280;49208;50.874;6.466;2023-03-26T21:32:41;99854.19;;;4.80;84.90
63115;BME280;49208;50.874;6.466;2023-03-26T21:35:08;99859.59;;;4.75;85.87
63115;BME280;49208;50.874;6.466;2023-03-26T21:37:33;99861.41;;;4.72;86.63
63115;BME280;49208;50.874;6.466;2023-03-26T21:39:59;99861.50;;;4.67;86.77
63115;BME280;49208;50.874;6.466;2023-03-26T21:42:35;99869.44;;;4.65;86.54
63115;BME280;49208;50.874;6.466;2023-03-26T21:45:01;99876.56;;;4.60;87.33
63115;BME280;49208;50.874;6.466;2023-03-26T21:47:26;99889.75;;;4.60;87.49
63115;BME280;49208;50.874;6.466;2023-03-26T21:49:52;99888.06;;;4.56;86.30
63115;BME280;49208;50.874;6.466;2023-03-26T21:52:18;99888.94;;;4.57;84.83
63115;BME280;49208;50.874;6.466;2023-03-26T21:54:47;99890.75;;;4.55;83.85
